Time;durP1;ratioP1;P1;durP2;ratioP2;P2;SDS_P1;SDS_P2;PMS_P1;PMS_P2;Temp;Humidity;BMP_temperature;BMP_pressure;BME280_temperature;BME280_humidity;BME280_pressure;Samples;Min_cycle;Max_cycle;Signal;HPM_P1;HPM_P2
2022/12/14 00:01:08;;;;;;;29.58;14.32;;;-0.70;73.30;;;;;;5010524;28;20152;-72
2022/12/14 00:03:35;;;;;;;29.20;14.32;;;-0.70;73.20;;;;;;5031974;28;20061;-72
2022/12/14 00:06:09;;;;;;;30.80;14.15;;;-0.70;73.20;;;;;;5009674;28;20215;-72
2022/12/14 00:08:36;;;;;;;32.93;13.83;;;-0.70;73.30;;;;;;5026538;28;20051;-72
2022/12/14 00:11:05;;;;;;;33.13;14.38;;;-0.70;73.20;;;;;;5009205;28;20743;-72
2022/12/14 00:13:33;;;;;;;33.13;15.27;;;-0.70;73.40;;;;;;5011408;28;20054;-72
2022/12/14 00:16:05;;;;;;;30.55;14.45;;;-0.70;73.30;;;;;;5043339;28;20050;-72
2022/12/14 00:18:32;;;;;;;35.25;15.18;;;-0.70;73.20;;;;;;5046102;28;20484;-72
2022/12/14 00:21:04;;;;;;;33.23;14.93;;;-0.70;73.20;;;;;;5010809;28;20065;-72
2022/12/14 00:23:31;;;;;;;32.95;14.13;;;-0.70;73.20;;;;;;5027025;28;20266;-72
2022/12/14 00:25:58;;;;;;;30.45;13.93;;;-0.70;73.30;;;;;;5042926;28;20112;-72
2022/12/14 00:28:25;;;;;;;31.75;14.80;;;-0.70;73.20;;;;;;5027971;28;20054;-72
2022/12/14 00:30:58;;;;;;;33.85;14.10;;;-0.80;73.10;;;;;;5026404;28;21018;-72
2022/12/14 00:33:25;;;;;;;27.90;13.93;;;-0.90;72.90;;;;;;5030866;28;20054;-72
2022/12/14 00:35:52;;;;;;;31.55;14.25;;;-0.90;72.90;;;;;;5017129;28;20269;-72
2022/12/14 00:38:19;;;;;;;30.15;13.88;;;-1.00;73.00;;;;;;5011289;28;20193;-72
2022/12/14 00:40:46;;;;;;;31.75;13.18;;;-1.00;73.30;;;;;;5010186;28;20077;-72
2022/12/14 00:43:13;;;;;;;29.02;13.50;;;-1.00;73.40;;;;;;5026482;28;20129;-72
2022/12/14 00:45:43;;;;;;;32.23;13.57;;;-1.00;73.50;;;;;;5025451;28;20057;-72
2022/12/14 00:48:11;;;;;;;30.05;13.32;;;-1.00;73.50;;;;;;5011212;28;20340;-72
2022/12/14 00:50:39;;;;;;;28.90;13.63;;;-1.00;73.40;;;;;;5025856;28;20053;-72
2022/12/14 00:53:08;;;;;;;27.50;12.88;;;-1.00;73.40;;;;;;5009871;28;20118;-72
2022/12/14 00:55:38;;;;;;;30.65;13.82;;;-1.00;73.20;;;;;;5010297;28;20064;-72
2022/12/14 00:58:09;;;;;;;29.03;13.53;;;-1.00;73.00;;;;;;5026508;28;20054;-72
2022/12/14 01:00:37;;;;;;;29.65;14.00;;;-1.00;73.20;;;;;;5026329;28;20278;-72
2022/12/14 01:03:05;;;;;;;31.63;13.63;;;-1.00;73.10;;;;;;5008535;28;20106;-72
2022/12/14 01:05:34;;;;;;;31.05;13.48;;;-1.00;73.30;;;;;;5011166;28;20076;-72
2022/12/14 01:08:01;;;;;;;31.33;14.27;;;-1.00;73.40;;;;;;5026524;28;20064;-72
2022/12/14 01:10:28;;;;;;;31.90;13.20;;;-1.00;73.40;;;;;;5015016;28;20054;-72
2022/12/14 01:12:56;;;;;;;30.20;13.85;;;-1.00;73.40;;;;;;5010363;28;20765;-72
2022/12/14 01:15:23;;;;;;;30.52;13.63;;;-1.00;73.30;;;;;;5009569;28;20066;-72
2022/12/14 01:17:51;;;;;;;29.00;12.63;;;-1.00;73.30;;;;;;5011037;28;20062;-72
2022/12/14 01:20:18;;;;;;;29.05;12.93;;;-1.00;73.40;;;;;;5025713;28;20596;-72
2022/12/14 01:22:46;;;;;;;30.77;13.33;;;-1.00;73.30;;;;;;5025997;28;20056;-72
2022/12/14 01:25:14;;;;;;;32.10;13.63;;;-1.00;73.20;;;;;;5025855;28;20323;-72
2022/12/14 01:27:41;;;;;;;33.05;14.02;;;-1.00;73.10;;;;;;5029755;28;20050;-72
2022/12/14 01:30:08;;;;;;;29.42;13.07;;;-1.00;73.20;;;;;;5025659;28;20228;-72
2022/12/14 01:32:35;;;;;;;29.45;13.05;;;-1.00;73.20;;;;;;5030435;28;20054;-72
2022/12/14 01:35:03;;;;;;;30.10;12.97;;;-1.00;73.10;;;;;;5031400;28;20801;-71
2022/12/14 01:37:30;;;;;;;30.08;12.85;;;-1.00;72.90;;;;;;5007582;28;20744;-72
2022/12/14 01:39:58;;;;;;;29.90;13.30;;;-1.10;73.00;;;;;;5008938;28;20058;-72
2022/12/14 01:42:25;;;;;;;32.38;13.68;;;-1.10;73.20;;;;;;5025355;28;20562;-72
2022/12/14 01:44:56;;;;;;;30.35;13.02;;;-1.10;73.00;;;;;;5010004;28;20054;-72
2022/12/14 01:47:33;;;;;;;28.30;12.97;;;-1.10;73.00;;;;;;5007706;28;20730;-72
2022/12/14 01:50:04;;;;;;;30.02;12.60;;;-1.10;73.00;;;;;;5006773;28;20274;-72
2022/12/14 01:52:36;;;;;;;31.83;12.73;;;-1.10;72.90;;;;;;5023836;28;20132;-72
2022/12/14 01:55:09;;;;;;;28.50;12.60;;;-1.10;72.90;;;;;;5008078;28;20058;-72
2022/12/14 01:57:41;;;;;;;27.38;12.68;;;-1.10;72.90;;;;;;5009664;28;20050;-72
2022/12/14 02:00:13;;;;;;;28.03;12.43;;;-1.10;72.80;;;;;;5023698;28;20054;-72
2022/12/14 02:02:44;;;;;;;31.17;12.57;;;-1.10;72.80;;;;;;5024825;28;20250;-72
2022/12/14 02:05:12;;;;;;;31.35;13.38;;;-1.10;72.80;;;;;;5059825;28;20248;-72
2022/12/14 02:07:42;;;;;;;27.38;12.23;;;-1.10;72.90;;;;;;5028760;28;20065;-72
2022/12/14 02:10:11;;;;;;;27.38;12.80;;;-1.10;72.90;;;;;;5011747;28;20473;-72
2022/12/14 02:12:41;;;;;;;28.30;12.73;;;-1.10;72.90;;;;;;5031470;28;20054;-72
2022/12/14 02:15:10;;;;;;;27.40;13.43;;;-1.10;72.80;;;;;;5028181;28;20274;-72
2022/12/14 02:17:38;;;;;;;30.38;13.93;;;-1.10;72.80;;;;;;5014845;28;20112;-72
2022/12/14 02:20:06;;;;;;;29.40;13.55;;;-1.20;72.90;;;;;;5025112;28;20516;-72
2022/12/14 02:22:59;;;;;;;29.38;12.80;;;-1.20;72.90;;;;;;5010038;28;20615;-72
2022/12/14 02:25:52;;;;;;;30.00;12.70;;;-1.20;72.90;;;;;;5008706;28;20137;-72
2022/12/14 02:28:47;;;;;;;28.80;12.93;;;-1.20;73.00;;;;;;5023843;28;20254;-72
2022/12/14 02:31:24;;;;;;;29.38;13.43;;;-1.30;73.10;;;;;;5007832;28;20061;-72
2022/12/14 02:33:57;;;;;;;31.60;13.18;;;-1.30;72.80;;;;;;5008412;28;20085;-72
2022/12/14 02:36:31;;;;;;;30.17;12.73;;;-1.30;72.80;;;;;;5009702;28;20055;-72
2022/12/14 02:39:07;;;;;;;27.07;12.33;;;-1.30;72.10;;;;;;5024280;28;20057;-72
2022/12/14 02:41:40;;;;;;;30.20;12.93;;;-1.30;71.90;;;;;;5008491;28;20688;-72
2022/12/14 02:44:18;;;;;;;29.08;13.10;;;-1.50;71.90;;;;;;5024872;28;20053;-72
2022/12/14 02:46:52;;;;;;;29.40;12.38;;;-1.50;71.80;;;;;;5008793;28;20632;-72
2022/12/14 02:49:33;;;;;;;32.10;12.57;;;-1.60;71.70;;;;;;5007038;28;20710;-72
2022/12/14 02:52:07;;;;;;;28.67;12.97;;;-1.70;71.90;;;;;;5016312;28;20500;-72
2022/12/14 02:54:45;;;;;;;29.58;11.82;;;-1.80;72.30;;;;;;5027909;28;20273;-72
2022/12/14 02:57:17;;;;;;;31.20;12.02;;;-1.80;72.10;;;;;;5030794;28;20060;-72
2022/12/14 02:59:45;;;;;;;27.15;11.77;;;-1.90;71.80;;;;;;5047736;28;20105;-72
2022/12/14 03:02:14;;;;;;;28.83;12.30;;;-2.00;72.10;;;;;;5032437;28;20057;-72
2022/12/14 03:04:44;;;;;;;25.17;11.57;;;-2.00;72.20;;;;;;5047873;28;20129;-72
2022/12/14 03:07:36;;;;;;;25.20;11.63;;;-2.10;72.00;;;;;;5023959;28;20644;-72
2022/12/14 03:10:09;;;;;;;27.23;12.45;;;-2.10;71.70;;;;;;5011465;28;20054;-72
2022/12/14 03:12:41;;;;;;;27.38;12.20;;;-2.10;71.80;;;;;;5027734;28;20101;-72
2022/12/14 03:15:10;;;;;;;27.55;11.77;;;-2.20;71.70;;;;;;5026485;28;20054;-72
2022/12/14 03:17:40;;;;;;;28.73;12.77;;;-2.20;72.10;;;;;;5011651;28;20050;-72
2022/12/14 03:20:10;;;;;;;29.67;12.43;;;-2.20;72.50;;;;;;5027672;28;20273;-72
2022/12/14 03:22:43;;;;;;;27.58;11.95;;;-2.20;72.60;;;;;;5033753;28;20510;-72
2022/12/14 03:25:16;;;;;;;29.00;12.68;;;-2.10;72.60;;;;;;5012924;28;20062;-72
2022/12/14 03:27:50;;;;;;;25.95;11.93;;;-2.10;72.70;;;;;;5055201;28;20123;-72
2022/12/14 03:30:19;;;;;;;25.57;11.00;;;-2.10;72.80;;;;;;5030677;28;20138;-72
2022/12/14 03:32:50;;;;;;;28.85;11.80;;;-2.10;72.60;;;;;;5021077;28;20735;-72
2022/12/14 03:35:23;;;;;;;28.00;11.77;;;-2.10;72.60;;;;;;5012326;28;20053;-72
2022/12/14 03:37:55;;;;;;;29.00;11.35;;;-2.10;72.50;;;;;;5044289;28;20050;-72
2022/12/14 03:40:30;;;;;;;27.33;11.95;;;-2.10;72.50;;;;;;5011273;28;20057;-72
2022/12/14 03:43:05;;;;;;;27.53;11.60;;;-2.10;71.90;;;;;;5012246;28;20085;-72
2022/12/14 03:45:43;;;;;;;27.45;12.52;;;-2.10;71.70;;;;;;5012352;28;20286;-72
2022/12/14 03:48:19;;;;;;;30.50;12.68;;;-2.10;71.40;;;;;;5023323;28;20475;-72
2022/12/14 03:50:51;;;;;;;27.38;11.48;;;-2.20;71.90;;;;;;5025086;28;20402;-72
2022/12/14 03:53:21;;;;;;;27.92;12.32;;;-2.20;72.00;;;;;;5031806;28;20140;-72
2022/12/14 03:56:01;;;;;;;27.07;11.37;;;-2.30;72.00;;;;;;5047472;28;20630;-72
2022/12/14 03:58:36;;;;;;;27.25;11.75;;;-2.30;72.20;;;;;;5028075;28;20379;-72
2022/12/14 04:01:09;;;;;;;31.10;12.10;;;-2.30;71.90;;;;;;5010559;28;20052;-72
2022/12/14 04:03:49;;;;;;;28.15;11.18;;;-2.30;72.20;;;;;;5007263;28;20532;-72
2022/12/14 04:06:26;;;;;;;28.92;12.35;;;-2.30;72.30;;;;;;5027284;28;20531;-72
2022/12/14 04:09:03;;;;;;;28.57;11.23;;;-2.30;72.50;;;;;;5042844;28;20050;-72
2022/12/14 04:20:05;;;;;;;26.90;11.70;;;-2.30;72.10;;;;;;5031445;28;20157;-72
2022/12/14 04:22:38;;;;;;;27.90;11.70;;;-2.30;72.30;;;;;;5031364;28;20522;-72
2022/12/14 04:28:01;;;;;;;29.48;12.30;;;-2.30;72.00;;;;;;5011916;28;20054;-72
2022/12/14 04:30:34;;;;;;;27.40;11.85;;;-2.40;71.90;;;;;;5026457;28;20047;-72
2022/12/14 04:33:45;;;;;;;26.48;11.35;;;-2.40;72.00;;;;;;5011974;28;20062;-72
2022/12/14 04:35:56;;;;;;;25.60;10.83;;;-2.40;72.10;;;;;;5010015;28;20089;-72
2022/12/14 04:38:31;;;;;;;27.88;11.23;;;-2.40;72.00;;;;;;5016439;28;20331;-72
2022/12/14 04:41:03;;;;;;;25.35;11.23;;;-2.50;71.70;;;;;;5018248;28;20046;-72
2022/12/14 04:43:37;;;;;;;28.13;11.95;;;-2.60;71.60;;;;;;5017255;28;20224;-72
2022/12/14 04:46:08;;;;;;;26.20;11.00;;;-2.70;71.70;;;;;;5029890;28;20510;-72
2022/12/14 04:48:40;;;;;;;25.00;10.47;;;-2.70;72.00;;;;;;5024371;28;20523;-72
2022/12/14 04:51:14;;;;;;;26.58;11.30;;;-2.70;72.40;;;;;;5011038;28;20401;-72
2022/12/14 04:53:45;;;;;;;27.05;11.40;;;-2.70;72.40;;;;;;5010380;28;20134;-72
2022/12/14 04:56:19;;;;;;;25.92;11.00;;;-2.80;72.20;;;;;;5011228;28;20592;-72
2022/12/14 04:58:46;;;;;;;27.25;11.18;;;-2.80;71.90;;;;;;5024811;28;20047;-72
2022/12/14 05:01:25;;;;;;;27.17;11.77;;;-2.90;72.00;;;;;;5009492;28;20042;-72
2022/12/14 05:04:01;;;;;;;24.23;10.68;;;-2.90;72.20;;;;;;5011242;28;20396;-72
2022/12/14 05:06:36;;;;;;;26.67;10.60;;;-2.90;72.60;;;;;;5026667;28;20842;-72
2022/12/14 05:09:12;;;;;;;26.65;10.57;;;-2.90;72.40;;;;;;5060192;28;20053;-72
2022/12/14 05:11:45;;;;;;;24.10;10.45;;;-2.90;72.30;;;;;;5046170;28;20084;-72
2022/12/14 05:14:19;;;;;;;24.87;10.33;;;-3.00;72.30;;;;;;5040235;28;20082;-72
2022/12/14 05:16:48;;;;;;;26.55;11.02;;;-3.00;72.30;;;;;;5009990;28;20254;-72
2022/12/14 05:19:15;;;;;;;26.45;10.82;;;-3.00;72.20;;;;;;5008670;28;20047;-72
2022/12/14 05:21:49;;;;;;;26.95;10.75;;;-3.00;72.00;;;;;;5012684;28;20054;-72
2022/12/14 05:24:18;;;;;;;24.92;10.65;;;-3.10;71.90;;;;;;5029268;28;20530;-72
2022/12/14 05:26:45;;;;;;;23.47;10.20;;;-3.10;71.90;;;;;;5030683;28;20057;-72
2022/12/14 05:29:13;;;;;;;27.00;10.63;;;-3.10;72.00;;;;;;5045187;28;20742;-72
2022/12/14 05:31:40;;;;;;;25.95;10.68;;;-3.20;72.10;;;;;;5019525;28;20049;-72
2022/12/14 05:34:08;;;;;;;25.17;11.02;;;-3.20;72.20;;;;;;5010741;28;20159;-72
2022/12/14 05:36:37;;;;;;;25.90;10.48;;;-3.20;72.60;;;;;;5009406;28;20046;-72
2022/12/14 05:39:05;;;;;;;27.00;11.50;;;-3.10;72.70;;;;;;5040146;28;20125;-72
2022/12/14 05:41:32;;;;;;;22.92;10.18;;;-3.10;72.80;;;;;;5009428;28;20278;-72
2022/12/14 05:43:59;;;;;;;26.98;10.48;;;-3.10;72.50;;;;;;5025737;28;20054;-72
2022/12/14 05:46:27;;;;;;;27.58;11.27;;;-3.10;72.10;;;;;;5010477;28;20054;-72
2022/12/14 05:48:54;;;;;;;28.95;10.75;;;-3.10;71.90;;;;;;4991547;28;20047;-72
2022/12/14 05:51:21;;;;;;;26.27;10.23;;;-3.20;72.20;;;;;;5010623;28;20054;-72
2022/12/14 05:53:48;;;;;;;24.75;10.02;;;-3.20;72.30;;;;;;5010310;28;20312;-72
2022/12/14 05:56:19;;;;;;;26.55;11.18;;;-3.20;72.50;;;;;;5025498;28;20052;-72
2022/12/14 05:58:49;;;;;;;25.20;10.13;;;-3.20;72.30;;;;;;5010099;28;20647;-72
2022/12/14 06:01:17;;;;;;;28.77;10.80;;;-3.20;72.20;;;;;;5010009;28;20117;-72
2022/12/14 06:03:46;;;;;;;27.93;11.47;;;-3.20;72.10;;;;;;5010085;28;20055;-72
2022/12/14 06:06:13;;;;;;;28.88;11.50;;;-3.20;72.20;;;;;;5007317;28;20254;-72
2022/12/14 06:08:42;;;;;;;28.42;11.65;;;-3.20;72.30;;;;;;5032466;28;20149;-72
2022/12/14 06:11:11;;;;;;;28.35;11.90;;;-3.20;72.30;;;;;;5027737;28;20141;-71
2022/12/14 06:13:41;;;;;;;29.25;10.57;;;-3.20;72.30;;;;;;5021586;28;20507;-72
2022/12/14 06:16:10;;;;;;;25.60;10.70;;;-3.30;72.10;;;;;;4989980;28;20521;-72
2022/12/14 06:18:41;;;;;;;30.15;10.70;;;-3.30;72.10;;;;;;5002123;28;20272;-72
2022/12/14 06:21:08;;;;;;;27.60;11.15;;;-3.30;72.40;;;;;;5027299;28;20053;-72
2022/12/14 06:23:36;;;;;;;29.60;11.27;;;-3.30;72.30;;;;;;5026188;28;20050;-72
2022/12/14 06:26:03;;;;;;;29.23;11.80;;;-3.30;72.50;;;;;;5044190;28;20058;-72
2022/12/14 06:28:30;;;;;;;27.33;11.43;;;-3.30;72.40;;;;;;5024162;28;20172;-72
2022/12/14 06:30:58;;;;;;;28.88;11.68;;;-3.40;72.30;;;;;;5026005;28;21038;-72
2022/12/14 06:33:25;;;;;;;27.58;11.30;;;-3.40;72.50;;;;;;5017224;28;20125;-72
2022/12/14 06:35:52;;;;;;;33.17;11.93;;;-3.40;72.70;;;;;;5010714;28;20058;-72
2022/12/14 06:38:20;;;;;;;30.65;11.55;;;-3.30;72.70;;;;;;5011185;28;20057;-72
2022/12/14 06:40:47;;;;;;;28.03;11.60;;;-3.30;72.70;;;;;;5013889;28;20141;-72
2022/12/14 06:43:14;;;;;;;28.52;11.18;;;-3.20;72.50;;;;;;5017701;28;20379;-72
2022/12/14 06:45:41;;;;;;;29.52;11.98;;;-3.20;72.30;;;;;;4963012;28;20057;-72
2022/12/14 06:48:10;;;;;;;31.73;14.07;;;-3.20;72.30;;;;;;5010555;28;20058;-72
2022/12/14 06:50:37;;;;;;;35.95;15.05;;;-3.20;72.30;;;;;;5023849;28;20042;-72
2022/12/14 06:53:04;;;;;;;34.90;13.90;;;-3.30;72.50;;;;;;5023125;28;20058;-72
2022/12/14 06:55:32;;;;;;;31.35;12.23;;;-3.20;72.70;;;;;;5012468;28;20285;-72
2022/12/14 06:57:59;;;;;;;29.17;12.23;;;-3.20;72.70;;;;;;5012133;28;20061;-72
2022/12/14 07:00:26;;;;;;;26.27;11.20;;;-3.20;72.50;;;;;;5008948;28;20050;-72
2022/12/14 07:02:53;;;;;;;29.98;12.10;;;-3.20;72.50;;;;;;5008258;28;20511;-72
2022/12/14 07:05:21;;;;;;;32.17;11.73;;;-3.20;72.20;;;;;;5008856;28;20060;-72
2022/12/14 07:07:49;;;;;;;32.05;12.63;;;-3.20;72.20;;;;;;5010251;28;20258;-72
2022/12/14 07:10:17;;;;;;;32.00;11.93;;;-3.20;72.20;;;;;;5011696;28;20177;-72
2022/12/14 07:12:43;;;;;;;28.77;11.27;;;-3.30;72.10;;;;;;5043296;28;20060;-72
2022/12/14 07:15:11;;;;;;;32.53;12.75;;;-3.30;71.90;;;;;;5010219;28;20159;-72
2022/12/14 07:17:38;;;;;;;29.90;13.33;;;-3.40;72.10;;;;;;5013770;28;20031;-73
2022/12/14 07:20:07;;;;;;;26.58;11.15;;;-3.40;72.20;;;;;;5048966;28;20986;-71
2022/12/14 07:22:37;;;;;;;26.63;11.75;;;-3.40;72.50;;;;;;5012006;28;20054;-72
2022/12/14 07:25:05;;;;;;;28.42;12.70;;;-3.40;72.60;;;;;;5008554;28;20202;-72
2022/12/14 07:27:32;;;;;;;28.73;11.43;;;-3.40;72.50;;;;;;5010532;28;20157;-72
2022/12/14 07:29:59;;;;;;;31.33;11.27;;;-3.40;72.50;;;;;;5035065;28;20050;-72
2022/12/14 07:32:26;;;;;;;30.58;11.98;;;-3.40;72.60;;;;;;5026679;28;20258;-71
2022/12/14 07:34:53;;;;;;;28.02;11.32;;;-3.40;72.70;;;;;;5013969;28;20057;-72
2022/12/14 07:37:20;;;;;;;29.60;12.10;;;-3.30;72.70;;;;;;5014208;28;20041;-72
2022/12/14 07:39:49;;;;;;;29.38;11.98;;;-3.30;72.80;;;;;;5010621;28;20050;-71
2022/12/14 07:42:16;;;;;;;29.63;11.10;;;-3.30;72.50;;;;;;5024324;28;20046;-72
2022/12/14 07:44:47;;;;;;;29.00;11.10;;;-3.40;72.20;;;;;;5010518;28;20305;-72
2022/12/14 07:47:14;;;;;;;30.73;11.93;;;-3.40;72.20;;;;;;5008515;28;20050;-71
2022/12/14 07:49:42;;;;;;;31.38;11.52;;;-3.50;72.20;;;;;;5007500;28;20058;-71
2022/12/14 07:52:09;;;;;;;28.13;11.18;;;-3.50;72.40;;;;;;5009492;28;20038;-71
2022/12/14 07:54:37;;;;;;;27.67;10.93;;;-3.50;72.40;;;;;;5013795;28;20078;-71
2022/12/14 07:57:06;;;;;;;29.00;11.95;;;-3.60;72.50;;;;;;5011964;28;20976;-71
2022/12/14 07:59:33;;;;;;;29.52;10.52;;;-3.60;72.60;;;;;;5012554;28;20646;-72
2022/12/14 08:02:00;;;;;;;30.70;12.00;;;-3.60;72.90;;;;;;5009431;28;20050;-72
2022/12/14 08:05:19;;;;;;;29.38;11.65;;;-3.60;73.00;;;;;;5011294;28;20050;-71
2022/12/14 08:07:46;;;;;;;24.63;10.53;;;-3.60;72.80;;;;;;5008563;28;20042;-71
2022/12/14 08:10:13;;;;;;;30.73;11.95;;;-3.60;72.90;;;;;;5007898;28;20292;-71
2022/12/14 08:12:41;;;;;;;32.22;11.88;;;-3.60;72.90;;;;;;5007197;28;20108;-71
2022/12/14 08:15:09;;;;;;;29.88;11.52;;;-3.60;72.70;;;;;;5006247;28;20825;-72
2022/12/14 08:17:36;;;;;;;29.55;11.20;;;-3.60;72.70;;;;;;5007659;28;20053;-72
2022/12/14 08:20:05;;;;;;;27.27;10.93;;;-3.60;72.70;;;;;;5011502;28;20054;-71
2022/12/14 08:22:35;;;;;;;32.33;10.70;;;-3.60;72.70;;;;;;5008490;28;20270;-72
2022/12/14 08:25:02;;;;;;;27.88;11.85;;;-3.60;72.80;;;;;;5038087;28;20053;-71
2022/12/14 08:27:30;;;;;;;26.52;11.15;;;-3.60;73.00;;;;;;5004195;28;20061;-72
2022/12/14 08:29:58;;;;;;;30.13;12.10;;;-3.60;73.00;;;;;;5021826;28;20141;-72
2022/12/14 08:32:25;;;;;;;28.83;11.37;;;-3.60;73.20;;;;;;5009141;28;20054;-72
2022/12/14 08:34:52;;;;;;;31.60;12.23;;;-3.60;73.30;;;;;;5010770;28;20333;-71
2022/12/14 08:37:19;;;;;;;28.00;10.57;;;-3.60;73.40;;;;;;5006511;28;20562;-72
2022/12/14 08:39:46;;;;;;;29.38;10.95;;;-3.50;73.40;;;;;;5024780;28;20053;-71
2022/12/14 08:42:13;;;;;;;33.55;11.98;;;-3.50;73.30;;;;;;5040785;28;20077;-74
2022/12/14 08:44:40;;;;;;;29.23;11.70;;;-3.50;73.10;;;;;;5021811;28;20522;-71
2022/12/14 08:47:09;;;;;;;29.13;11.43;;;-3.50;73.00;;;;;;5010401;28;20273;-71
2022/12/14 08:49:36;;;;;;;30.38;11.20;;;-3.50;72.90;;;;;;5010636;28;20682;-72
2022/12/14 08:52:03;;;;;;;28.10;11.02;;;-3.50;72.90;;;;;;5024813;28;21035;-72
2022/12/14 08:54:30;;;;;;;29.17;10.68;;;-3.50;72.90;;;;;;5009709;28;20061;-72
2022/12/14 08:56:57;;;;;;;26.60;11.30;;;-3.50;72.80;;;;;;5012255;28;20078;-72
2022/12/14 08:59:24;;;;;;;33.20;12.20;;;-3.50;73.00;;;;;;5005918;28;20674;-71
2022/12/14 09:01:51;;;;;;;30.75;11.90;;;-3.50;73.20;;;;;;5008042;28;20046;-72
2022/12/14 09:04:19;;;;;;;27.95;11.05;;;-3.50;73.10;;;;;;5039155;28;20550;-72
2022/12/14 09:06:46;;;;;;;30.35;11.73;;;-3.50;73.10;;;;;;5030075;28;20694;-72
2022/12/14 09:09:13;;;;;;;26.70;11.33;;;-3.50;73.20;;;;;;5022159;28;22296;-72
2022/12/14 09:11:40;;;;;;;31.23;11.90;;;-3.40;73.20;;;;;;5007313;28;20816;-72
2022/12/14 09:14:07;;;;;;;31.13;11.38;;;-3.40;73.40;;;;;;5008146;28;20053;-72
2022/12/14 09:16:35;;;;;;;27.85;11.45;;;-3.40;74.20;;;;;;5006674;28;20060;-73
2022/12/14 09:19:02;;;;;;;27.20;11.95;;;-3.40;74.50;;;;;;5001973;28;20054;-72
2022/12/14 09:21:30;;;;;;;29.80;12.07;;;-3.40;74.40;;;;;;5008916;28;20516;-72
2022/12/14 09:23:57;;;;;;;27.70;11.02;;;-3.40;74.20;;;;;;5007900;28;20968;-72
2022/12/14 09:26:24;;;;;;;29.63;11.70;;;-3.30;74.10;;;;;;5006095;28;20682;-72
2022/12/14 09:28:54;;;;;;;28.75;10.73;;;-3.40;74.10;;;;;;5010558;28;20058;-71
2022/12/14 09:31:23;;;;;;;25.45;10.43;;;-3.40;74.20;;;;;;5009514;28;20046;-72
2022/12/14 09:33:50;;;;;;;28.37;11.10;;;-3.40;74.70;;;;;;5038611;28;20085;-72
2022/12/14 09:36:20;;;;;;;29.58;10.95;;;-3.30;75.00;;;;;;5028253;28;20250;-72
2022/12/14 09:38:49;;;;;;;28.25;10.20;;;-3.30;75.50;;;;;;5024607;28;20070;-72
2022/12/14 09:41:29;;;;;;;24.20;10.98;;;-3.20;75.70;;;;;;5010139;28;20041;-72
2022/12/14 09:44:03;;;;;;;30.08;10.60;;;-3.20;75.50;;;;;;5014511;28;20507;-72
2022/12/14 09:46:43;;;;;;;25.70;10.77;;;-3.20;75.50;;;;;;5012327;28;20047;-72
2022/12/14 09:49:24;;;;;;;29.88;10.60;;;-3.20;75.60;;;;;;5035415;28;20288;-72
2022/12/14 09:51:53;;;;;;;29.23;10.80;;;-3.20;75.80;;;;;;5015815;28;20471;-72
2022/12/14 09:54:26;;;;;;;28.65;10.75;;;-3.20;76.10;;;;;;5016516;28;20100;-72
2022/12/14 09:56:54;;;;;;;23.70;10.10;;;-3.20;76.20;;;;;;5040654;28;20060;-72
2022/12/14 09:59:26;;;;;;;26.17;10.53;;;-3.10;76.40;;;;;;5014389;28;20046;-72
2022/12/14 10:02:05;;;;;;;25.73;10.32;;;-3.10;76.60;;;;;;5020002;28;20242;-72
2022/12/14 10:04:46;;;;;;;24.23;9.80;;;-3.00;77.00;;;;;;5036935;28;20245;-72
2022/12/14 10:07:21;;;;;;;25.98;10.05;;;-3.00;77.10;;;;;;5006713;28;20042;-72
2022/12/14 10:10:01;;;;;;;27.77;10.20;;;-2.90;76.90;;;;;;5013999;28;20062;-72
2022/12/14 10:12:46;;;;;;;25.93;10.33;;;-2.90;76.90;;;;;;5015093;28;20058;-72
2022/12/14 10:15:25;;;;;;;26.30;10.07;;;-2.80;77.10;;;;;;5039603;28;20300;-72
2022/12/14 10:18:13;;;;;;;23.10;10.07;;;-2.80;77.30;;;;;;5037912;28;20973;-72
2022/12/14 10:20:47;;;;;;;26.95;9.88;;;-2.70;77.50;;;;;;5015590;28;20133;-72
2022/12/14 10:23:19;;;;;;;28.58;10.52;;;-2.60;77.50;;;;;;5008367;28;20046;-72
2022/12/14 10:25:51;;;;;;;29.90;10.00;;;-2.50;77.50;;;;;;5006339;28;20926;-72
2022/12/14 10:28:23;;;;;;;23.70;8.75;;;-2.40;77.60;;;;;;5020205;28;20250;-72
2022/12/14 10:30:57;;;;;;;27.40;10.68;;;-2.30;77.70;;;;;;5011204;28;20054;-72
2022/12/14 10:33:28;;;;;;;27.23;10.77;;;-2.20;77.50;;;;;;5006848;28;20492;-71
2022/12/14 10:35:59;;;;;;;27.00;10.27;;;-2.10;77.50;;;;;;5007772;28;20050;-72
2022/12/14 10:38:34;;;;;;;25.47;10.17;;;-2.10;77.40;;;;;;5022356;28;20062;-72
2022/12/14 10:41:12;;;;;;;27.70;10.43;;;-1.90;77.20;;;;;;5005765;28;20275;-72
2022/12/14 10:43:48;;;;;;;25.08;9.70;;;-1.80;77.30;;;;;;5010901;28;20062;-72
2022/12/14 10:46:25;;;;;;;24.90;10.13;;;-1.70;77.50;;;;;;5007246;28;20054;-71
2022/12/14 10:48:56;;;;;;;24.45;10.95;;;-1.60;77.50;;;;;;5004062;28;20571;-72
2022/12/14 10:51:30;;;;;;;27.63;11.10;;;-1.50;77.40;;;;;;5022792;28;20051;-72
2022/12/14 10:54:10;;;;;;;28.48;10.75;;;-1.50;77.40;;;;;;5009507;28;20286;-72
2022/12/14 10:56:41;;;;;;;24.52;9.80;;;-1.30;77.30;;;;;;5001871;28;20054;-72
2022/12/14 10:59:29;;;;;;;25.58;10.00;;;-1.20;77.20;;;;;;5006080;28;20109;-72
2022/12/14 11:02:02;;;;;;;26.15;10.32;;;-1.10;77.30;;;;;;5027176;28;20047;-72
2022/12/14 11:04:33;;;;;;;22.07;8.60;;;-1.00;77.30;;;;;;5020473;28;20050;-72
2022/12/14 11:07:02;;;;;;;26.92;9.93;;;-0.90;77.20;;;;;;5008212;28;20644;-72
2022/12/14 11:09:30;;;;;;;23.25;9.30;;;-0.80;77.10;;;;;;5004606;28;20066;-72
2022/12/14 11:12:02;;;;;;;18.95;8.40;;;-0.70;77.00;;;;;;5008266;28;20563;-72
2022/12/14 11:14:30;;;;;;;23.77;8.23;;;-0.60;76.90;;;;;;5005297;28;20043;-71
2022/12/14 11:16:57;;;;;;;21.87;8.87;;;-0.50;76.90;;;;;;5018454;28;20133;-71
2022/12/14 11:19:26;;;;;;;20.88;7.78;;;-0.40;76.70;;;;;;5035332;28;20353;-71
2022/12/14 11:22:09;;;;;;;21.23;8.10;;;-0.30;76.80;;;;;;5039717;28;20051;-71
2022/12/14 11:24:46;;;;;;;23.13;9.45;;;-0.20;76.80;;;;;;5015018;28;20052;-71
2022/12/14 11:27:18;;;;;;;22.67;8.45;;;-0.10;76.80;;;;;;5010441;28;20058;-71
2022/12/14 11:29:48;;;;;;;23.93;9.03;;;0.00;76.50;;;;;;5015404;28;20182;-71
2022/12/14 11:32:20;;;;;;;19.30;8.32;;;0.10;76.50;;;;;;5008171;28;20282;-71
2022/12/14 11:34:57;;;;;;;19.15;7.82;;;0.20;76.30;;;;;;5042058;28;21056;-71
2022/12/14 11:37:27;;;;;;;19.67;8.45;;;0.40;76.00;;;;;;5011709;28;20173;-71
2022/12/14 11:39:57;;;;;;;21.20;7.80;;;0.50;75.90;;;;;;5025501;28;20121;-70
2022/12/14 11:42:26;;;;;;;18.77;8.70;;;0.60;75.60;;;;;;5017757;28;20039;-71
2022/12/14 11:44:54;;;;;;;16.75;7.18;;;0.70;75.40;;;;;;5016972;28;20393;-71
2022/12/14 11:47:22;;;;;;;16.85;7.35;;;0.80;75.50;;;;;;4996526;28;20165;-71
2022/12/14 11:49:51;;;;;;;19.30;8.65;;;0.90;75.00;;;;;;5025116;28;20149;-71
2022/12/14 11:52:20;;;;;;;19.17;7.68;;;1.00;75.00;;;;;;5006895;28;20057;-71
2022/12/14 11:55:02;;;;;;;18.67;8.00;;;1.10;74.70;;;;;;5025209;28;20058;-71
2022/12/14 11:57:33;;;;;;;18.40;7.35;;;1.20;74.50;;;;;;5013615;28;21299;-72
2022/12/14 12:00:04;;;;;;;19.92;8.13;;;1.40;74.10;;;;;;5009925;28;20042;-71
2022/12/14 12:02:35;;;;;;;16.27;7.45;;;1.40;73.90;;;;;;5011542;28;20065;-71
2022/12/14 12:05:10;;;;;;;15.73;7.20;;;1.50;73.70;;;;;;5024800;28;20046;-71
2022/12/14 12:07:41;;;;;;;17.57;7.30;;;1.60;73.20;;;;;;5043897;28;20546;-71
2022/12/14 12:10:19;;;;;;;17.88;7.57;;;1.70;72.90;;;;;;5004702;28;20285;-71
2022/12/14 12:12:52;;;;;;;18.35;7.13;;;1.70;72.50;;;;;;5012130;28;20149;-71
2022/12/14 12:15:23;;;;;;;16.73;6.90;;;1.80;72.00;;;;;;5007658;28;20066;-72
2022/12/14 12:17:54;;;;;;;15.00;6.35;;;1.90;71.60;;;;;;5008272;28;20058;-71
2022/12/14 12:20:29;;;;;;;17.07;6.73;;;1.90;71.40;;;;;;5007985;28;20082;-71
2022/12/14 12:23:00;;;;;;;15.90;6.38;;;2.00;70.90;;;;;;5008354;28;20285;-71
2022/12/14 12:25:32;;;;;;;17.17;6.35;;;2.00;70.50;;;;;;5008176;28;20125;-71
2022/12/14 12:28:07;;;;;;;15.20;6.80;;;2.10;70.10;;;;;;5006440;28;21184;-71
2022/12/14 12:30:38;;;;;;;18.73;7.53;;;2.20;70.00;;;;;;5022045;28;20050;-71
2022/12/14 12:33:19;;;;;;;16.13;6.87;;;2.20;69.80;;;;;;5005421;28;20128;-71
2022/12/14 12:35:50;;;;;;;15.52;6.90;;;2.30;69.90;;;;;;5024158;28;20266;-72
2022/12/14 12:38:23;;;;;;;17.02;7.55;;;2.40;69.60;;;;;;5039379;28;20871;-72
2022/12/14 12:41:00;;;;;;;21.35;8.52;;;2.40;69.50;;;;;;5006263;28;20097;-72
2022/12/14 12:43:33;;;;;;;22.10;9.40;;;2.50;69.40;;;;;;5008607;28;20058;-72
2022/12/14 12:46:06;;;;;;;19.10;9.13;;;2.50;69.50;;;;;;5008275;28;20061;-72
2022/12/14 12:48:38;;;;;;;21.30;9.55;;;2.50;69.40;;;;;;5009026;28;20278;-71
2022/12/14 12:51:15;;;;;;;22.40;9.73;;;2.50;69.60;;;;;;5034181;28;20121;-71
2022/12/14 12:53:47;;;;;;;21.67;8.93;;;2.60;69.40;;;;;;5043910;28;20053;-71
2022/12/14 12:56:18;;;;;;;22.70;8.68;;;2.70;69.50;;;;;;5025938;28;20049;-72
2022/12/14 12:58:50;;;;;;;22.13;8.80;;;2.70;69.50;;;;;;5043500;28;20049;-72
2022/12/14 13:01:24;;;;;;;18.80;8.55;;;2.70;69.30;;;;;;5046787;28;20319;-72